Terminal Aerodrome Forecast
Issued by NWS

Home | Current Version | Previous Version | Text Only | Print | Product List | Glossary On
Versions: 1 2 3 4 5 6 7 8 9 10 11 12 13 14 15 16
000
FTUS46 KMTR 171700
TAFOAK
TAF
KOAK 171738Z 1718/1824 14008KT P6SM VCSH SCT025 BKN035
      TEMPO 1718/1722 -SHRA
     FM172200 13009KT P6SM -SHRA SCT020 BKN035
     FM180000 14008KT 6SM -RA BR BKN025 OVC030
      TEMPO 1802/1806 RA OVC025
     FM180800 14006KT P6SM -SHRA BKN015 OVC030
     FM181500 12004KT P6SM BKN015 OVC025=

USA.gov is the U.S. government's official web portal to all federal, state and local government web resources and services.